East Boston, Massachusetts
Current Conditions -  °F | °C
As of 2:54 AM on Monday 26 Jan 2015 (Local Time) from KBOS Reporting Station
Overcast Overcast  
Wind Chill:   Ceiling: 22000
Heat Index: 14°   Visibility: 10mi
Dew Point: -1°   Wind: 12mph
Humidity: 52%   Direction: 330°NNW
Pressure: 30.09"   Gusts: NA
Location:  42.3583°N, 71.0602°W
Report Text: KBOS 260754Z 33010KT 10SM OVC220 M10/M18 A3009 RMK AO2 SLP188 T11001183
Loading
Personal Weather Stations






























Interactive Weather Map New forecast layout! Learn more

10-Day Weather Forecast

Advertisements
Track Severe Weather on mobile